Aviation Digital Data Service (ADDS)

Output produced by METARs form (2323 UTC 23 May 2022)
found at http://www.aviationweather.gov/metar/data/
 
LTAF 232250Z 12005KT 9999 BKN030 21/19 Q1007 NOSIG RMK RWY23 15006KT 120V180 5CU030
TAF LTAF 232240Z 2400/2424 VRB02KT 9999 BKN030 
     BECMG 2404/2406 SCT035 
     BECMG 2409/2411 21012KT 
     BECMG 2416/2418 VRB02KT
       
TAF LTCP 231340Z 2315/2324 31017KT 9999 SCT040 BKN100 
     TEMPO 2315/2319 27018G28KT 
     BECMG 2319/2321 31007KT CAVOK
       
LTBJ 232250Z 00000KT 9999 FEW030 SCT100 18/15 Q1010 NOSIG RMK RWY16 VRB02KT
TAF LTBJ 232240Z 2400/2424 VRB02KT CAVOK 
     BECMG 2407/2410 35014KT FEW030 
     BECMG 2415/2418 CAVOK 
     BECMG 2418/2421 VRB02KT
       
TAF LTAH 231340Z 2315/2324 34015KT 9999 SCT040 
     BECMG 2318/2320 CAVOK
       
TAF LTCO 231340Z 2315/2324 24020G30KT 9999 FEW040 SCT080 
     BECMG 2315/2318 VRB02KT SCT040 BKN080
       
TAF LTBT 231340Z 2315/2324 30009KT 9999 FEW040 SCT100 
     BECMG 2315/2317 CAVOK
       
LTAE 232250Z VRB02KT CAVOK 10/06 Q1013 NOSIG RMK RWY21 23001KT
TAF LTAE 232240Z 2400/2409 VRB02KT CAVOK 
     BECMG 2406/2409 SCT040
       
LTBY 232250Z 00000KT CAVOK 08/05 Q1013
TAF LTBY 232240Z 2400/2409 VRB02KT 9999 SCT040 
     TEMPO 2400/2404 -SHRA BKN030
       
LTAI 232250Z 32005KT CAVOK 21/13 Q1008 NOSIG RMK RWY18C VRB02KT RWY36R 31005KT RWY18L 31004KT
TAF LTAI 232240Z 2400/2424 34009KT CAVOK 
     BECMG 2406/2409 SCT030 
     BECMG 2409/2411 18015KT 
     BECMG 2415/2418 VRB02KT 
     BECMG 2418/2421 CAVOK 
     BECMG 2422/2424 34012KT
       
LTBA 232250Z 08005KT CAVOK 17/12 Q1012 NOSIG RMK RWY23 07005KT
TAF LTBA 232240Z 2400/2506 VRB02KT CAVOK 
     TEMPO 2401/2405 3200 BR SCT010 
     BECMG 2405/2408 03012KT
       
LTBF 232250Z 21001KT CAVOK 14/09 Q1011 NOSIG
TAF LTBF 232240Z 2400/2409 VRB02KT CAVOK
       
TAF LTBG 232240Z 2400/2409 03007KT CAVOK
       
LTCJ 232250Z 15003KT 9999 FEW040 BKN100 12/12 Q1006 RMK RWY20 VRB01KT 1CU040 5AC100
TAF LTCJ 232240Z 2400/2424 VRB02KT 9999 FEW040 SCT100 
     BECMG 2416/2418 CAVOK
       
LTBH 232250Z 08004KT CAVOK 15/11 Q1010
TAF LTBH 232240Z 2400/2409 VRB02KT CAVOK
       
LTAY 232250Z 00000KT CAVOK 12/04 Q1013
TAF LTAY 232240Z 2400/2409 VRB02KT CAVOK 
     BECMG 2406/2409 FEW035
       
LTFH 232250Z 19003KT 160V230 9999 SCT036 BKN100 13/12 Q1012 RESHRA NOSIG
TAF LTFH 232240Z 2400/2409 VRB02KT 9999 SCT036 BKN100 
     TEMPO 2400/2403 -SHRA BKN030 BKN090 
     BECMG 2406/2409 28012KT
       
TAF LTBL 232240Z 2400/2409 VRB02KT CAVOK
       
LTBU 232250Z 05006KT CAVOK 13/09 Q1012 RMK RWY22 05005KT
TAF LTBU 232240Z 2400/2424 05008KT 9999 SCT035 BKN080 
     PROB40 
     TEMPO 2403/2407 1200 BCFG BKN006 
     BECMG 2407/2410 15012KT 
     BECMG 2415/2418 03008KT
       
LTBS 232250Z 06003KT CAVOK 15/14 Q1009 NOSIG RMK RWY19 01003KT 330V070 SKC
TAF LTBS 232240Z 2400/2424 VRB02KT CAVOK 
     BECMG 2406/2408 22014KT FEW030 SCT120 
     BECMG 2416/2418 VRB02KT CAVOK
       
LTCC 232250Z 26002KT 9999 FEW040 SCT100 12/11 Q1006 NOSIG RMK RWY16 VRB01KT 1CU040 3AC100
TAF LTCC 232240Z 2400/2424 30006KT 9999 FEW040 SCT100 
     BECMG 2400/2402 CAVOK 
     BECMG 2407/2410 SCT040 BKN100 
     BECMG 2417/2419 CAVOK
       
LTFD 232250Z 11002KT CAVOK 15/11 Q1010
TAF LTFD 232240Z 2400/2409 VRB02KT CAVOK
       
LTCA 232250Z 23014KT CAVOK 13/07 Q1008 NOSIG
TAF LTCA 232240Z 2400/2409 24008KT CAVOK 
     BECMG 2403/2406 29018KT SCT035 SCT100 
     TEMPO 2406/2409 30020G30KT
       
LTAT 232250Z 25009KT 9999 FEW035 SCT090 12/06 Q1010 NOSIG RMK RWY03 30007KT
TAF LTAT 232240Z 2400/2424 24007KT CAVOK 
     BECMG 2403/2406 31018KT 
     BECMG 2406/2408 SCT040 
     BECMG 2416/2418 21007KT CAVOK
       
LTAU 232250Z 28007KT 9999 SCT040 BKN100 09/08 Q1012 NOSIG RMK RWY07 25006KT
TAF LTAU 232240Z 2400/2424 30008KT 9999 SCT040 BKN100 
     PROB40 
     TEMPO 2404/2408 27015G25KT -SHRA FEW025CB BKN035 
     PROB30 
     TEMPO 2409/2413 29015G25KT -TSRA FEW025CB BKN030
       
LTCD 232250Z VRB01KT 9999 SCT040 BKN100 08/04 Q1010 NOSIG
TAF LTCD 232240Z 2400/2409 VRB02KT 9999 SCT040 BKN100 
     BECMG 2407/2409 27020KT
       
LTCE 232250Z VRB02KT CAVOK 04/M01 Q1011 NOSIG RMK RWY08R 22003KT 180V250 RWY26R 23006KT RWY08L 23005KT 200V260 SKC
TAF LTCE 232240Z 2400/2424 VRB02KT CAVOK 
     BECMG 2404/2406 SCT040 BKN080 
     BECMG 2408/2411 28014KT FEW025CB BKN035 
     TEMPO 2411/2415 -TSRA 
     BECMG 2415/2417 SCT040 BKN080 
     BECMG 2420/2422 VRB02KT CAVOK
       
LTAC 232250Z 13004KT CAVOK 10/06 Q1012 NOSIG RMK RWY21L 13004KT RWY03L VRB02KT RWY21R 14004KT
TAF LTAC 232240Z 2400/2424 VRB02KT CAVOK 
     BECMG 2401/2405 FEW040 SCT100 
     TEMPO 2408/2412 28012KT 
     TEMPO 2412/2416 30012KT 
     BECMG 2417/2420 CAVOK
       
TAF COR LTBI 232240Z 2400/2409 VRB02KT 9999 SCT040 
     TEMPO 2400/2404 -SHRA BKN030
       
TAF LTAD 232240Z 2400/2409 VRB02KT CAVOK 
     BECMG 2405/2407 SCT040
       
TAF LTBK 231340Z 2315/2324 33015G25KT CAVOK 
     BECMG 2317/2319 VRB02KT FEW030 SCT100
       
TAF LTAB 232240Z 2400/2409 VRB02KT CAVOK 
     BECMG 2404/2406 SCT040
       
LTAG 232250Z 14004KT 9999 BKN016 20/20 Q1008 NOSIG RMK 6ST016
TAF LTAG 232240Z 2400/2424 VRB02KT 9999 BKN020 
     BECMG 2405/2407 30012KT SCT035 
     BECMG 2410/2413 20014KT 
     BECMG 2416/2418 VRB02KT 
     BECMG 2420/2422 BKN020
       
LTCN 232250Z 07004KT 040V110 9999 FEW035 SCT100 14/13 Q1009 NOSIG
TAF LTCN 232240Z 2400/2409 VRB02KT CAVOK 
     BECMG 2404/2406 28015KT FEW040
       
TAF LTFA 231340Z 2315/2324 27012KT CAVOK 
     BECMG 2315/2317 VRB02KT
       
LTAZ 232250Z 34002KT 9999 SCT035 SCT100 09/07 Q1013 RMK RWY29 00000KT
TAF LTAZ 232240Z 2400/2424 28008KT 9999 SCT040 SCT100 
     TEMPO 2405/2409 30015G25KT -SHRA FEW025CB BKN035 
     PROB30 
     TEMPO 2409/2413 29015G25KT -TSRA FEW025CB BKN035
       
LTCF 232250Z 12006KT 9999 SCT035 03/01 Q1010
TAF LTCF 232240Z 2400/2409 VRB02KT CAVOK 
     BECMG 2407/2409 SCT040 BKN080
       
TAF LTAL 231340Z 2315/2324 07007KT 6000 -SHRA FEW023CB BKN028 BKN080 
     TEMPO 2315/2318 -TSRA FEW023CB 
     BECMG 2320/2321 SCT034
       
LTAN 232250Z 31005KT 9999 FEW040 12/05 Q1014 NOSIG
TAF LTAN 232240Z 2400/2409 29007KT CAVOK 
     BECMG 2406/2408 SCT040
       
TAF LTBN 231340Z 2315/2324 34015KT 9999 SCT040 
     BECMG 2318/2320 CAVOK
       
TAF LTCR 231340Z 2315/2324 33005KT 9999 SCT040
       
LTAP 232250Z 36004KT 9999 -SHRA BKN033 BKN080 09/08 Q1010 NOSIG RMK RWY23 03010KT
TAF LTAP 232240Z 2400/2424 03008KT 9999 SCT040 BKN100 
     PROB40 
     TEMPO 2403/2406 2000 BR FEW008 BKN035 
     BECMG 2406/2408 BKN035 BKN080 
     TEMPO 2408/2412 -SHRA 
     PROB40 
     TEMPO 2412/2416 03018KT -TSRA FEW030CB BKN035
       
LTFE 232250Z 00000KT CAVOK 15/11 Q1010 NOSIG RMK RWY10 VRB02KT
TAF LTFE 232240Z 2400/2424 VRB02KT CAVOK 
     BECMG 2408/2410 26016KT FEW035 
     BECMG 2415/2418 VRB02KT CAVOK
       
TAF LTCK 231340Z 2315/2324 30009KT 6000 SCT030 BKN070 
     TEMPO 2315/2319 18012G25KT -TSRA FEW020CB BKN030 
     PROB40 
     TEMPO 2319/2323 24012G25KT 4000 -TSRA FEW020CB BKN030
       
LTAJ 232250Z 27011KT CAVOK 17/10 Q1008 NOSIG RMK RWY10 27010KT 6AC100
TAF LTAJ 232240Z 2400/2424 27012KT CAVOK 
     BECMG 2407/2409 SCT040 
     TEMPO 2410/2414 27015G25KT 
     BECMG 2414/2416 CAVOK 
     BECMG 2419/2421 VRB02KT
       
LTFJ 232250Z 03004KT 9999 FEW030 BKN100 15/13 Q1012 NOSIG RMK RWY24 02004KT
TAF LTFJ 232240Z 2400/2424 03009KT CAVOK 
     TEMPO 2401/2405 1600 BCFG SCT006
       
TAF LTBX 231340Z 2315/2324 03008KT 9999 SCT035 BKN100 
     BECMG 2319/2322 CAVOK
       
TAF LTCL 231340Z 2315/2324 06005KT 9999 SCT040 SCT100
       
TAF LTCM 231640Z 2318/2403 VRB02KT 9999 SCT035 BKN100 
     TEMPO 2318/2321 -SHRA BKN030 BKN090
       
TAF LTAV 231340Z 2315/2324 34015KT 9999 SCT040 
     BECMG 2318/2320 CAVOK
       
LTFC 232250Z 33008KT CAVOK 13/04 Q1013 RMK RWY23 33004KT 270V360
TAF LTFC 232240Z 2400/2424 33005KT CAVOK 
     BECMG 2406/2409 34015KT SCT035 BKN100 
     BECMG 2416/2418 VRB02KT CAVOK
       
TAF LTAW 231340Z 2315/2324 03008KT 9999 SCT040 BKN100 
     TEMPO 2315/2318 -TSRA FEW030CB BKN035 
     TEMPO 2318/2321 -SHRA FEW030CB BKN035
       
LTBQ 232250Z VRB01KT 8000 SCT030 SCT080 11/11 Q1012 NOSIG
TAF LTBQ 232240Z 2400/2409 VRB02KT 8000 SCT030 SCT080 
     PROB30 
     TEMPO 2403/2406 4000 BR
       
LTCG 232250Z 00000KT 9999 SCT035 BKN100 14/11 Q1010 NOSIG RMK RWY29 14003KT
TAF LTCG 232240Z 2400/2424 VRB02KT 9999 SCT035 BKN090 
     BECMG 2400/2402 28012KT -SHRA SCT012 BKN028 
     TEMPO 2402/2406 30015G25KT 2500 SHRA BKN006 FEW020CB BKN025 
     BECMG 2407/2411 10008KT BKN035 
     BECMG 2412/2416 SCT035 BKN100 
     BECMG 2416/2419 22010KT
       
LTCI 232250Z 30005KT 9999 SCT030 BKN100 11/06 Q1012 TEMPO -TSRA
TAF LTCI 232240Z 2400/2409 27009KT 9999 SCT030 BKN070 
     TEMPO 2400/2404 -TSRA FEW020CB BKN030 
     PROB30 
     TEMPO 2406/2409 -SHRA FEW020CB BKN030
       
TAF LTBP 231340Z 2315/2324 28008KT 9999 SCT035 BKN100 
     BECMG 2320/2323 CAVOK
       
LTBR 232250Z 33005KT 320V020 9999 SCT040 12/10 Q1012 NOSIG RMK RWY07 31003KT 260V350
TAF LTBR 232240Z 2400/2424 VRB02KT 9999 SCT040 
     TEMPO 2400/2403 -SHRA BKN035 
     BECMG 2407/2411 33012KT 
     BECMG 2414/2418 VRB02KT CAVOK